Time;durP1;ratioP1;P1;durP2;ratioP2;P2;SDS_P1;SDS_P2;PMS_P1;PMS_P2;Temp;Humidity;BMP_temperature;BMP_pressure;BME280_temperature;BME280_humidity;BME280_pressure;Samples;Min_cycle;Max_cycle;Signal;HPM_P1;HPM_P2
2024/03/14 00:02:19;;;;;;;6.93;3.15;;;10.10;99.90;;;;;;5015307;28;20026;-78
2024/03/14 00:04:45;;;;;;;5.85;3.20;;;10.10;99.90;;;;;;5015129;28;20053;-77
2024/03/14 00:07:12;;;;;;;6.53;3.17;;;10.10;99.90;;;;;;5016879;28;20033;-77
2024/03/14 00:09:38;;;;;;;12.85;4.40;;;10.00;99.90;;;;;;5015497;28;20028;-77
2024/03/14 00:12:04;;;;;;;9.05;3.50;;;10.00;99.90;;;;;;5016200;28;20068;-77
2024/03/14 00:14:30;;;;;;;8.55;3.05;;;10.00;99.90;;;;;;5015197;28;20371;-77
2024/03/14 00:16:56;;;;;;;7.47;3.80;;;9.90;99.90;;;;;;5015048;28;20033;-77
2024/03/14 00:19:22;;;;;;;5.85;3.35;;;9.90;99.90;;;;;;5014919;28;20717;-77
2024/03/14 00:21:48;;;;;;;7.85;3.10;;;9.90;99.90;;;;;;5016420;28;20018;-77
2024/03/14 00:24:14;;;;;;;6.78;3.22;;;9.90;99.90;;;;;;5015218;28;20022;-77
2024/03/14 00:26:40;;;;;;;8.00;3.35;;;9.90;99.90;;;;;;5015482;28;20033;-77
2024/03/14 00:29:06;;;;;;;6.70;3.72;;;9.90;99.90;;;;;;5016851;28;20026;-77
2024/03/14 00:31:40;;;;;;;8.73;3.65;;;9.90;99.90;;;;;;5015965;28;20108;-77
2024/03/14 00:34:07;;;;;;;6.88;3.65;;;9.90;99.90;;;;;;5014397;28;20049;-77
2024/03/14 00:36:37;;;;;;;6.45;3.53;;;9.90;99.90;;;;;;5016042;28;20018;-77
2024/03/14 00:39:06;;;;;;;7.78;2.95;;;9.90;99.90;;;;;;5015812;28;20022;-77
2024/03/14 00:41:34;;;;;;;10.32;4.03;;;9.90;99.90;;;;;;5015797;28;20030;-78
2024/03/14 00:44:03;;;;;;;6.65;3.03;;;9.90;99.90;;;;;;5015431;28;20022;-77
2024/03/14 00:46:33;;;;;;;8.82;3.33;;;9.90;99.90;;;;;;5015474;28;20105;-77
2024/03/14 00:48:59;;;;;;;9.80;3.83;;;9.80;99.90;;;;;;5014830;28;20049;-77
2024/03/14 00:51:25;;;;;;;6.35;3.47;;;9.90;99.90;;;;;;5015654;28;20034;-77
2024/03/14 00:53:54;;;;;;;5.82;3.28;;;9.90;99.90;;;;;;5014631;28;20088;-77
2024/03/14 00:56:20;;;;;;;11.23;3.22;;;9.80;99.90;;;;;;5015795;28;20022;-77
2024/03/14 00:58:47;;;;;;;6.28;3.10;;;9.80;99.90;;;;;;5016016;28;20025;-77
2024/03/14 01:01:13;;;;;;;6.07;3.00;;;9.80;99.90;;;;;;5015899;28;20028;-77
2024/03/14 01:03:40;;;;;;;8.95;3.58;;;9.80;99.90;;;;;;5014348;28;20018;-77
2024/03/14 01:06:11;;;;;;;6.40;3.28;;;9.80;99.90;;;;;;5014674;28;20056;-77
2024/03/14 01:08:37;;;;;;;6.30;3.17;;;9.70;99.90;;;;;;5014190;28;20022;-77
2024/03/14 01:11:03;;;;;;;7.85;3.35;;;9.70;99.90;;;;;;5014114;28;20030;-77
2024/03/14 01:13:29;;;;;;;7.40;3.58;;;9.70;99.90;;;;;;5015639;28;20092;-77
2024/03/14 01:15:55;;;;;;;5.30;3.03;;;9.70;99.90;;;;;;5014295;28;20041;-77
2024/03/14 01:18:20;;;;;;;7.38;3.10;;;9.70;99.90;;;;;;5013994;28;20022;-77
2024/03/14 01:20:46;;;;;;;6.20;2.90;;;9.70;99.90;;;;;;5013653;28;20026;-77
2024/03/14 01:23:11;;;;;;;5.80;2.92;;;10.10;99.90;;;;;;5013818;28;20041;-77
2024/03/14 01:25:37;;;;;;;5.32;2.92;;;9.60;99.90;;;;;;5013715;28;20485;-77
2024/03/14 01:28:03;;;;;;;9.00;2.70;;;9.60;99.90;;;;;;5014996;28;20033;-77
2024/03/14 01:30:29;;;;;;;7.43;3.22;;;9.60;99.90;;;;;;5015070;28;20060;-77
2024/03/14 01:32:55;;;;;;;6.65;3.05;;;;;;;;;;5015471;28;20026;-77
2024/03/14 01:35:21;;;;;;;6.57;2.92;;;9.60;99.90;;;;;;5015280;28;20038;-77
2024/03/14 01:37:47;;;;;;;5.78;3.15;;;10.10;99.90;;;;;;5013931;28;20026;-77
2024/03/14 01:40:12;;;;;;;5.05;2.55;;;9.50;99.90;;;;;;5014105;28;20466;-77
2024/03/14 01:42:45;;;;;;;5.10;2.85;;;9.50;99.90;;;;;;5014135;28;20026;-77
2024/03/14 01:45:14;;;;;;;4.65;2.75;;;9.50;99.90;;;;;;5014290;28;20109;-77
2024/03/14 01:47:43;;;;;;;7.50;2.50;;;9.40;99.90;;;;;;5013649;28;20492;-78
2024/03/14 01:50:11;;;;;;;4.88;2.38;;;9.50;99.90;;;;;;5014912;28;20022;-77
2024/03/14 01:52:37;;;;;;;4.15;2.45;;;9.50;99.90;;;;;;5015057;28;20030;-77
2024/03/14 01:55:04;;;;;;;3.00;1.83;;;9.60;99.90;;;;;;5015098;28;20024;-77
2024/03/14 01:57:31;;;;;;;3.58;2.38;;;;;;;;;;5013570;28;20112;-78
2024/03/14 02:00:00;;;;;;;4.55;2.30;;;9.60;99.90;;;;;;5014012;28;20125;-77
2024/03/14 02:02:26;;;;;;;2.92;2.13;;;9.50;99.90;;;;;;5015354;28;20026;-77
2024/03/14 02:05:16;;;;;;;6.38;2.55;;;9.60;99.90;;;;;;5015170;28;20025;-77
2024/03/14 02:07:42;;;;;;;3.67;2.17;;;9.50;99.90;;;;;;5014258;28;20036;-77
2024/03/14 02:10:13;;;;;;;5.25;1.98;;;9.50;99.90;;;;;;5015446;28;20017;-77
2024/03/14 02:12:39;;;;;;;4.35;2.22;;;9.50;99.90;;;;;;5015577;28;20405;-77
2024/03/14 02:15:06;;;;;;;9.00;2.10;;;9.50;99.90;;;;;;5015586;28;20105;-78
2024/03/14 02:17:33;;;;;;;3.95;2.42;;;9.50;99.90;;;;;;5014467;28;20034;-78
2024/03/14 02:19:58;;;;;;;5.90;2.20;;;9.50;99.90;;;;;;5016783;28;20097;-78
2024/03/14 02:22:24;;;;;;;4.93;2.00;;;9.50;99.90;;;;;;5014616;28;20050;-78
2024/03/14 02:24:51;;;;;;;5.53;2.20;;;9.50;99.90;;;;;;5015135;28;20075;-77
2024/03/14 02:27:17;;;;;;;23.35;2.00;;;9.40;99.90;;;;;;5016225;28;20026;-77
2024/03/14 02:29:43;;;;;;;2.92;1.80;;;9.40;99.90;;;;;;5015878;28;20088;-77
2024/03/14 02:32:09;;;;;;;3.88;1.70;;;9.50;99.90;;;;;;5016045;28;20029;-77
2024/03/14 02:34:35;;;;;;;3.65;1.40;;;9.50;99.90;;;;;;5014590;28;20445;-77
2024/03/14 02:37:01;;;;;;;2.90;1.67;;;9.40;99.90;;;;;;5014934;28;20085;-78
2024/03/14 02:39:29;;;;;;;3.90;1.98;;;9.40;99.90;;;;;;5015275;28;20033;-78
2024/03/14 02:41:56;;;;;;;3.47;1.67;;;9.40;99.90;;;;;;5015799;28;20023;-78
2024/03/14 02:44:22;;;;;;;3.10;1.60;;;9.40;99.90;;;;;;5014444;28;20385;-77
2024/03/14 02:46:50;;;;;;;2.78;1.60;;;10.20;99.90;;;;;;5015411;28;20015;-77
2024/03/14 02:49:17;;;;;;;;;;;9.50;99.90;;;;;;5014078;28;20389;-77
2024/03/14 02:51:45;;;;;;;3.60;1.75;;;9.50;99.90;;;;;;5016205;28;19912;-77
2024/03/14 02:54:11;;;;;;;5.80;1.87;;;9.40;99.90;;;;;;5015350;28;20033;-78
2024/03/14 02:56:36;;;;;;;6.30;2.15;;;9.40;99.90;;;;;;5015200;28;20026;-77
2024/03/14 02:59:02;;;;;;;4.88;1.75;;;9.30;99.90;;;;;;5018772;28;20489;-78
2024/03/14 03:01:30;;;;;;;4.47;1.83;;;9.30;99.90;;;;;;5019287;28;20026;-77
2024/03/14 03:03:57;;;;;;;4.60;2.13;;;9.20;99.90;;;;;;5018241;28;20022;-78
2024/03/14 03:06:26;;;;;;;4.15;2.30;;;9.20;99.90;;;;;;5018703;28;20018;-77
2024/03/14 03:08:52;;;;;;;4.35;2.40;;;9.10;99.90;;;;;;5018026;28;20116;-77
2024/03/14 03:11:18;;;;;;;3.00;1.95;;;9.10;99.90;;;;;;5019048;28;20030;-77
2024/03/14 03:13:44;;;;;;;2.55;2.20;;;9.10;99.90;;;;;;5018733;28;20045;-78
2024/03/14 03:16:11;;;;;;;5.28;2.17;;;9.10;99.90;;;;;;5017695;28;20064;-77
2024/03/14 03:18:38;;;;;;;3.30;2.10;;;9.00;99.90;;;;;;5018756;28;20026;-78
2024/03/14 03:21:05;;;;;;;5.13;2.15;;;9.00;99.90;;;;;;5017635;28;20042;-77
2024/03/14 03:23:30;;;;;;;5.03;2.00;;;9.00;99.90;;;;;;5017676;28;20037;-77
2024/03/14 03:25:56;;;;;;;5.13;2.28;;;9.00;99.90;;;;;;5017909;28;20478;-78
2024/03/14 03:28:22;;;;;;;4.05;2.10;;;9.00;99.90;;;;;;5017457;28;20507;-78
2024/03/14 03:30:48;;;;;;;6.70;2.30;;;9.00;99.90;;;;;;5017411;28;20025;-77
2024/03/14 03:33:20;;;;;;;5.90;2.95;;;9.10;99.90;;;;;;5017879;28;20060;-77
2024/03/14 03:35:46;;;;;;;6.72;3.33;;;9.00;99.90;;;;;;5018843;28;20045;-78
2024/03/14 03:38:15;;;;;;;5.47;3.00;;;9.00;99.90;;;;;;5018383;28;20028;-77
2024/03/14 03:40:41;;;;;;;5.47;2.85;;;9.00;99.90;;;;;;5019010;28;20076;-78
2024/03/14 03:43:07;;;;;;;5.05;2.65;;;8.90;99.90;;;;;;5017692;28;20026;-77
2024/03/14 03:45:34;;;;;;;11.73;3.33;;;8.90;99.90;;;;;;5019186;28;20042;-77
2024/03/14 03:48:00;;;;;;;6.38;3.53;;;8.90;99.90;;;;;;5018385;28;20497;-77
2024/03/14 03:50:27;;;;;;;6.80;3.42;;;8.90;99.90;;;;;;5016666;28;20363;-77
2024/03/14 03:52:54;;;;;;;6.05;2.92;;;8.90;99.90;;;;;;5016975;28;20030;-78
2024/03/14 03:55:21;;;;;;;6.03;3.35;;;8.90;99.90;;;;;;5017948;28;20121;-78
2024/03/14 03:57:47;;;;;;;6.00;3.42;;;8.80;99.90;;;;;;5016214;28;20026;-78
2024/03/14 04:02:58;;;;;;;5.07;3.17;;;8.80;99.90;;;;;;5017514;28;20076;-77
2024/03/14 04:05:27;;;;;;;8.18;3.58;;;8.80;99.90;;;;;;5016844;28;20026;-78
2024/03/14 04:07:52;;;;;;;;;;;8.70;99.90;;;;;;5017602;28;20030;-78
2024/03/14 04:10:18;;;;;;;8.07;3.78;;;8.80;99.90;;;;;;5017313;28;19927;-78
2024/03/14 04:12:44;;;;;;;8.13;4.07;;;8.80;99.90;;;;;;5017019;28;20041;-78
2024/03/14 04:15:10;;;;;;;8.10;4.30;;;9.10;99.90;;;;;;5017685;28;20054;-78
2024/03/14 04:17:37;;;;;;;8.20;4.20;;;8.80;99.90;;;;;;5016158;28;20486;-78
2024/03/14 04:20:26;;;;;;;7.40;4.22;;;8.70;99.90;;;;;;5017722;28;20053;-77
2024/03/14 04:22:53;;;;;;;7.72;4.05;;;8.70;99.90;;;;;;5016844;28;20482;-78
2024/03/14 04:25:19;;;;;;;7.07;4.30;;;8.70;99.90;;;;;;5017352;28;20014;-77
2024/03/14 04:27:45;;;;;;;10.70;4.15;;;8.70;99.90;;;;;;5016697;28;20021;-78
2024/03/14 04:30:16;;;;;;;10.07;5.07;;;8.70;99.90;;;;;;5015768;28;20121;-78
2024/03/14 04:32:45;;;;;;;9.70;4.85;;;8.60;99.90;;;;;;5015822;28;20026;-78
2024/03/14 04:35:11;;;;;;;;;;;8.60;99.90;;;;;;5017592;28;20100;-78
2024/03/14 04:37:40;;;;;;;10.32;4.70;;;8.60;99.90;;;;;;5016908;28;19906;-77
2024/03/14 04:40:13;;;;;;;13.55;5.47;;;8.60;99.90;;;;;;5016720;28;20426;-77
2024/03/14 04:42:43;;;;;;;10.57;5.03;;;8.60;99.90;;;;;;5016842;28;20014;-78
2024/03/14 04:45:09;;;;;;;13.93;5.40;;;8.60;99.90;;;;;;5016937;28;20597;-77
2024/03/14 04:47:36;;;;;;;8.13;4.70;;;8.50;99.90;;;;;;5016482;28;20477;-78
2024/03/14 04:50:03;;;;;;;11.98;5.78;;;8.50;99.90;;;;;;5016453;28;20032;-77
2024/03/14 04:52:29;;;;;;;13.35;5.88;;;8.50;99.90;;;;;;5015039;28;20030;-77
2024/03/14 04:54:55;;;;;;;9.90;5.47;;;8.50;99.90;;;;;;5017048;28;20021;-78
2024/03/14 04:57:21;;;;;;;10.85;5.38;;;8.50;99.90;;;;;;5015110;28;20046;-78
2024/03/14 04:59:48;;;;;;;11.77;5.63;;;8.40;99.90;;;;;;5014966;28;20049;-77
2024/03/14 05:02:14;;;;;;;12.43;5.78;;;8.40;99.90;;;;;;5016214;28;20106;-77
2024/03/14 05:04:40;;;;;;;13.40;6.18;;;8.40;99.90;;;;;;5016590;28;20050;-78
2024/03/14 05:07:06;;;;;;;13.27;6.07;;;9.20;99.90;;;;;;5015936;28;20096;-78
2024/03/14 05:09:33;;;;;;;12.02;5.70;;;8.50;99.90;;;;;;5015467;28;20076;-78
2024/03/14 05:11:59;;;;;;;10.05;5.60;;;8.50;99.90;;;;;;5014849;28;20037;-78
2024/03/14 05:14:24;;;;;;;11.05;5.88;;;8.40;99.90;;;;;;5014940;28;20030;-78
2024/03/14 05:16:50;;;;;;;14.70;6.57;;;8.40;99.90;;;;;;5015984;28;20061;-78
2024/03/14 05:19:16;;;;;;;14.63;7.18;;;8.40;99.90;;;;;;5015483;28;20470;-77
2024/03/14 05:21:45;;;;;;;12.27;6.15;;;8.40;99.90;;;;;;5013716;28;20033;-78
2024/03/14 05:24:11;;;;;;;13.20;6.05;;;8.40;99.90;;;;;;5016003;28;20499;-78
2024/03/14 05:26:37;;;;;;;12.77;6.28;;;8.40;99.90;;;;;;5013656;28;20064;-78
2024/03/14 05:29:03;;;;;;;13.98;6.93;;;8.40;99.90;;;;;;5016865;28;20030;-78
2024/03/14 05:31:28;;;;;;;14.80;5.88;;;8.40;99.90;;;;;;5016840;28;20026;-78
2024/03/14 05:33:54;;;;;;;12.88;6.60;;;8.30;99.90;;;;;;5017164;28;20033;-78
2024/03/14 05:36:19;;;;;;;14.23;6.68;;;8.30;99.90;;;;;;5016102;28;20064;-77
2024/03/14 05:38:45;;;;;;;11.90;6.00;;;8.20;99.90;;;;;;5016100;28;20029;-77
2024/03/14 05:41:10;;;;;;;11.77;6.07;;;8.20;99.90;;;;;;5014957;28;20022;-78
2024/03/14 05:43:36;;;;;;;13.20;6.22;;;8.10;99.90;;;;;;5016900;28;20486;-78
2024/03/14 05:46:04;;;;;;;16.48;6.75;;;8.10;99.90;;;;;;5014994;28;20057;-78
2024/03/14 05:48:30;;;;;;;13.68;6.00;;;8.10;99.90;;;;;;5014593;28;20022;-79
2024/03/14 05:50:56;;;;;;;12.38;5.82;;;7.90;99.90;;;;;;5014046;28;20371;-78
2024/03/14 05:53:26;;;;;;;15.05;6.43;;;7.90;99.90;;;;;;5014983;28;20524;-78
2024/03/14 05:55:52;;;;;;;11.52;6.32;;;8.80;99.90;;;;;;5015829;28;20037;-78
2024/03/14 05:58:18;;;;;;;15.73;6.53;;;7.90;99.90;;;;;;5016141;28;20032;-78
2024/03/14 06:00:43;;;;;;;12.75;6.60;;;7.90;99.90;;;;;;5016161;28;20026;-77
2024/03/14 06:03:12;;;;;;;11.85;5.57;;;7.80;99.90;;;;;;5015148;28;20402;-77
2024/03/14 06:05:37;;;;;;;14.93;6.38;;;7.80;99.90;;;;;;5017041;28;20105;-77
2024/03/14 06:08:03;;;;;;;13.77;6.47;;;7.80;99.90;;;;;;5015600;28;20481;-78
2024/03/14 06:10:29;;;;;;;12.77;5.80;;;7.70;99.90;;;;;;5017231;28;20030;-79
2024/03/14 06:12:54;;;;;;;13.65;5.75;;;7.70;99.90;;;;;;5014851;28;20041;-78
2024/03/14 06:15:20;;;;;;;18.52;6.68;;;8.00;99.90;;;;;;5016495;28;20417;-78
2024/03/14 06:17:50;;;;;;;16.77;7.00;;;7.70;99.90;;;;;;5017604;28;20045;-78
2024/03/14 06:20:18;;;;;;;16.17;6.15;;;7.70;99.90;;;;;;5017617;28;20014;-77
2024/03/14 06:22:44;;;;;;;17.75;7.18;;;7.70;99.90;;;;;;5014310;28;20018;-78
2024/03/14 06:25:10;;;;;;;15.55;6.38;;;7.70;99.90;;;;;;5016072;28;20600;-79
2024/03/14 06:27:37;;;;;;;15.32;6.63;;;7.70;99.90;;;;;;5020484;28;20358;-80
2024/03/14 06:30:09;;;;;;;17.65;6.70;;;7.80;99.90;;;;;;5015267;28;20026;-77
2024/03/14 06:32:36;;;;;;;15.30;6.65;;;7.80;99.90;;;;;;5016823;28;20505;-80
2024/03/14 06:35:03;;;;;;;16.40;6.78;;;8.00;99.90;;;;;;5020311;28;20087;-80
2024/03/14 06:37:28;;;;;;;16.00;6.70;;;8.00;99.90;;;;;;5018152;28;20030;-78
2024/03/14 06:39:57;;;;;;;13.57;5.82;;;8.20;99.90;;;;;;5016085;28;20069;-78
2024/03/14 06:42:23;;;;;;;13.05;6.55;;;8.20;99.90;;;;;;5019470;28;20018;-77
2024/03/14 06:44:49;;;;;;;13.13;6.10;;;8.30;99.90;;;;;;5020066;28;20478;-80
2024/03/14 06:47:14;;;;;;;12.45;5.90;;;8.40;99.90;;;;;;5020003;28;20125;-80
2024/03/14 06:49:43;;;;;;;16.73;6.57;;;8.60;99.90;;;;;;5019697;28;20070;-79
2024/03/14 06:52:09;;;;;;;;;;;8.60;99.90;;;;;;5019935;28;20079;-77
2024/03/14 06:54:36;;;;;;;11.55;5.68;;;8.80;99.90;;;;;;5014854;28;20296;-78
2024/03/14 06:57:02;;;;;;;15.77;7.03;;;8.80;99.90;;;;;;5015644;28;20393;-77
2024/03/14 06:59:28;;;;;;;11.18;5.40;;;9.00;99.90;;;;;;5015219;28;20030;-77
2024/03/14 07:01:55;;;;;;;15.30;6.50;;;9.00;99.90;;;;;;5018477;28;20053;-80
2024/03/14 07:04:21;;;;;;;12.75;5.43;;;9.10;99.90;;;;;;5016444;28;20014;-78
2024/03/14 07:06:48;;;;;;;11.23;5.40;;;9.20;99.90;;;;;;5014432;28;20028;-78
2024/03/14 07:09:17;;;;;;;12.73;5.40;;;9.30;99.90;;;;;;5016948;28;20056;-78
2024/03/14 07:11:45;;;;;;;12.10;5.43;;;9.30;99.90;;;;;;5015839;28;20009;-78
2024/03/14 07:14:11;;;;;;;12.15;6.07;;;9.30;99.90;;;;;;5015873;28;20041;-78
2024/03/14 07:16:38;;;;;;;9.90;4.95;;;9.30;99.90;;;;;;5017512;28;20490;-78
2024/03/14 07:19:07;;;;;;;11.38;5.10;;;9.30;99.90;;;;;;5016136;28;20543;-77
2024/03/14 07:21:34;;;;;;;11.07;5.25;;;9.40;99.90;;;;;;5016783;28;20496;-78
2024/03/14 07:24:00;;;;;;;9.70;4.88;;;9.50;99.90;;;;;;5014743;28;20018;-78
2024/03/14 07:26:32;;;;;;;10.80;5.28;;;9.50;99.90;;;;;;5014937;28;20026;-78
2024/03/14 07:28:58;;;;;;;8.82;4.25;;;9.50;99.90;;;;;;5015338;28;20049;-78
2024/03/14 07:31:30;;;;;;;8.25;4.50;;;9.70;99.90;;;;;;5015581;28;20033;-79
2024/03/14 07:33:59;;;;;;;12.18;4.38;;;9.70;99.90;;;;;;5014858;28;20033;-78
2024/03/14 07:36:27;;;;;;;11.13;4.30;;;9.80;99.90;;;;;;5014299;28;20033;-78
2024/03/14 07:38:52;;;;;;;8.17;3.83;;;9.90;99.90;;;;;;5012797;28;20030;-78
2024/03/14 07:41:25;;;;;;;9.15;4.32;;;9.90;99.90;;;;;;5014567;28;20532;-78
2024/03/14 07:43:53;;;;;;;9.40;4.18;;;10.10;99.90;;;;;;5012044;28;20113;-79
2024/03/14 07:46:22;;;;;;;9.30;3.38;;;10.10;99.90;;;;;;5015922;28;20470;-78
2024/03/14 07:48:49;;;;;;;;;;;10.20;99.90;;;;;;5016551;28;20022;-79
2024/03/14 07:51:17;;;;;;;8.32;3.55;;;10.30;99.90;;;;;;5018315;28;19905;-79
2024/03/14 07:53:47;;;;;;;8.95;4.40;;;10.40;99.90;;;;;;5018853;28;20026;-79
2024/03/14 07:56:13;;;;;;;6.00;2.83;;;10.50;99.90;;;;;;5016506;28;20052;-79
2024/03/14 07:58:42;;;;;;;7.78;4.05;;;10.50;99.90;;;;;;5018134;28;20033;-78
2024/03/14 08:01:15;;;;;;;;;;;10.60;99.90;;;;;;5016761;28;20029;-79
2024/03/14 08:03:45;;;;;;;5.70;3.00;;;10.70;99.90;;;;;;5016973;28;19906;-79
2024/03/14 08:06:11;;;;;;;10.02;3.35;;;10.80;99.90;;;;;;5017661;28;20374;-79
2024/03/14 08:08:40;;;;;;;6.10;2.65;;;10.80;99.90;;;;;;5016725;28;20045;-79
2024/03/14 08:11:09;;;;;;;5.03;2.65;;;10.90;99.90;;;;;;5016866;28;20492;-78
2024/03/14 08:13:35;;;;;;;6.25;3.30;;;11.00;99.90;;;;;;5017919;28;20034;-79
2024/03/14 08:16:21;;;;;;;4.97;2.50;;;11.10;99.90;;;;;;5018374;28;20109;-78
2024/03/14 08:18:51;;;;;;;7.70;2.40;;;11.10;99.90;;;;;;5017835;28;20041;-78
2024/03/14 08:21:17;;;;;;;5.63;2.15;;;11.10;99.90;;;;;;5018348;28;20033;-78
2024/03/14 08:23:44;;;;;;;4.32;2.17;;;11.20;99.90;;;;;;5018153;28;20029;-78
2024/03/14 08:26:10;;;;;;;4.20;2.05;;;11.20;99.90;;;;;;5016215;28;20087;-78
2024/03/14 08:28:41;;;;;;;4.93;1.92;;;11.30;99.90;;;;;;5016565;28;20044;-79
2024/03/14 08:31:15;;;;;;;9.20;2.55;;;11.50;99.90;;;;;;5018290;28;20022;-78
2024/03/14 08:33:44;;;;;;;3.10;1.65;;;11.50;99.90;;;;;;5016429;28;20076;-78
2024/03/14 08:36:11;;;;;;;4.78;2.42;;;11.60;99.90;;;;;;5017948;28;20034;-78
2024/03/14 08:38:37;;;;;;;4.30;1.73;;;11.70;99.90;;;;;;5016334;28;20140;-79
2024/03/14 08:41:03;;;;;;;7.45;2.22;;;11.70;99.90;;;;;;5016105;28;20066;-78
2024/03/14 08:43:33;;;;;;;8.30;2.95;;;11.90;99.90;;;;;;5017002;28;20449;-78
2024/03/14 08:46:00;;;;;;;2.88;1.67;;;11.90;99.90;;;;;;5015952;28;20477;-78
2024/03/14 08:48:26;;;;;;;2.75;1.48;;;12.00;99.90;;;;;;5017042;28;20072;-79
2024/03/14 08:50:52;;;;;;;5.88;2.38;;;12.10;99.90;;;;;;5017864;28;20540;-78
2024/03/14 08:53:17;;;;;;;4.40;1.30;;;12.20;99.90;;;;;;5016848;28;20026;-78
2024/03/14 08:55:55;;;;;;;4.90;1.40;;;12.30;99.90;;;;;;5015346;28;20071;-79
2024/03/14 08:58:22;;;;;;;4.47;1.77;;;12.30;99.90;;;;;;5015824;28;20018;-78
2024/03/14 09:00:48;;;;;;;2.25;1.05;;;12.40;99.90;;;;;;5017399;28;20018;-78
2024/03/14 09:03:15;;;;;;;2.67;1.48;;;12.50;99.90;;;;;;5015732;28;20121;-78
2024/03/14 09:05:42;;;;;;;4.85;2.17;;;12.60;99.90;;;;;;5015314;28;20025;-78
2024/03/14 09:08:08;;;;;;;4.10;1.65;;;12.70;99.90;;;;;;5017169;28;20474;-78
2024/03/14 09:10:33;;;;;;;3.28;1.58;;;12.80;99.90;;;;;;5015470;28;20034;-79
2024/03/14 09:13:00;;;;;;;2.80;1.38;;;12.90;99.90;;;;;;5015899;28;20034;-78
2024/03/14 09:15:27;;;;;;;3.00;1.30;;;13.00;99.90;;;;;;5017270;28;20026;-79
2024/03/14 09:17:55;;;;;;;4.68;1.42;;;13.10;99.90;;;;;;5017955;28;20036;-78
2024/03/14 09:20:21;;;;;;;4.70;1.20;;;13.10;99.90;;;;;;5016993;28;20544;-79
2024/03/14 09:22:56;;;;;;;2.05;1.00;;;13.20;99.90;;;;;;5015049;28;20018;-78
2024/03/14 09:25:24;;;;;;;2.45;1.20;;;13.20;99.90;;;;;;5017084;28;20030;-78
2024/03/14 09:27:53;;;;;;;2.67;0.95;;;13.20;99.90;;;;;;5016578;28;20014;-79
2024/03/14 09:30:21;;;;;;;3.38;1.38;;;13.30;99.90;;;;;;5015095;28;20018;-79
2024/03/14 09:32:47;;;;;;;5.82;1.20;;;13.40;99.90;;;;;;5017070;28;20018;-78
2024/03/14 09:35:15;;;;;;;2.88;0.70;;;13.60;99.90;;;;;;5015414;28;20037;-78
2024/03/14 09:37:43;;;;;;;1.65;1.15;;;13.70;99.90;;;;;;5016621;28;20068;-79
2024/03/14 09:40:14;;;;;;;2.53;0.90;;;13.70;99.90;;;;;;5014297;28;20026;-79
2024/03/14 09:42:47;;;;;;;4.20;1.08;;;13.70;99.90;;;;;;5015049;28;20071;-78
2024/03/14 09:45:14;;;;;;;2.42;1.00;;;13.80;99.90;;;;;;5016091;28;20029;-78
2024/03/14 09:47:45;;;;;;;3.90;1.45;;;13.90;99.90;;;;;;5014787;28;20030;-78
2024/03/14 09:50:15;;;;;;;2.75;0.77;;;13.90;99.90;;;;;;5014477;28;20105;-78
2024/03/14 09:52:43;;;;;;;1.65;0.40;;;14.00;99.90;;;;;;5015623;28;20025;-78
2024/03/14 09:55:12;;;;;;;3.05;1.25;;;14.20;99.90;;;;;;5014389;28;20017;-79
2024/03/14 09:57:38;;;;;;;1.58;0.45;;;14.30;99.90;;;;;;5016070;28;20018;-78
2024/03/14 10:00:09;;;;;;;3.65;0.88;;;14.30;99.90;;;;;;5015536;28;20029;-78
2024/03/14 10:02:35;;;;;;;2.47;1.00;;;14.30;99.90;;;;;;5015476;28;20520;-78
2024/03/14 10:05:10;;;;;;;2.55;0.90;;;14.40;99.90;;;;;;5015900;28;20022;-78
2024/03/14 10:07:38;;;;;;;1.30;0.52;;;14.50;99.90;;;;;;5014786;28;20029;-78
2024/03/14 10:10:05;;;;;;;3.70;1.20;;;14.50;99.90;;;;;;5014574;28;20583;-78
2024/03/14 10:12:31;;;;;;;2.08;0.70;;;14.60;99.90;;;;;;5014384;28;20400;-78
2024/03/14 10:15:03;;;;;;;1.52;0.50;;;14.70;99.90;;;;;;5015025;28;20018;-78
2024/03/14 10:17:31;;;;;;;0.90;0.65;;;14.70;99.90;;;;;;5014834;28;20022;-78
2024/03/14 10:20:08;;;;;;;2.33;1.10;;;14.90;99.90;;;;;;5013067;28;20029;-78
2024/03/14 10:22:35;;;;;;;1.48;0.40;;;14.90;99.90;;;;;;5014599;28;20089;-79
2024/03/14 10:25:03;;;;;;;1.42;0.47;;;15.00;99.90;;;;;;5014236;28;20022;-78
2024/03/14 10:27:30;;;;;;;2.35;0.80;;;15.20;99.90;;;;;;5012978;28;20072;-78
2024/03/14 10:29:56;;;;;;;1.17;0.30;;;15.30;99.90;;;;;;5013470;28;20021;-78
2024/03/14 10:32:23;;;;;;;3.50;0.65;;;15.30;99.90;;;;;;5012845;28;20033;-78
2024/03/14 10:34:51;;;;;;;1.98;0.50;;;15.40;99.90;;;;;;5012524;28;20025;-78
2024/03/14 10:37:18;;;;;;;1.58;0.52;;;15.40;99.90;;;;;;5012660;28;20044;-77
2024/03/14 10:39:54;;;;;;;4.30;0.90;;;15.50;99.90;;;;;;5012772;28;20545;-78
2024/03/14 10:42:22;;;;;;;1.48;0.65;;;15.50;99.90;;;;;;5012867;28;20061;-78
2024/03/14 10:44:48;;;;;;;2.08;0.70;;;15.40;99.90;;;;;;5014392;28;20037;-78
2024/03/14 10:47:15;;;;;;;0.88;0.65;;;15.40;99.90;;;;;;5014406;28;20018;-78
2024/03/14 10:49:45;;;;;;;1.48;0.50;;;15.60;99.90;;;;;;5014292;28;20030;-78
2024/03/14 10:52:14;;;;;;;2.42;0.73;;;15.60;99.90;;;;;;5012877;28;20028;-78
2024/03/14 10:54:47;;;;;;;4.28;0.25;;;15.50;99.90;;;;;;5014258;28;20080;-78
2024/03/14 10:57:16;;;;;;;1.80;0.85;;;15.50;99.90;;;;;;5012912;28;20069;-78
2024/03/14 10:59:44;;;;;;;;;;;15.60;99.90;;;;;;5013246;28;20604;-78
2024/03/14 11:02:16;;;;;;;3.17;0.47;;;15.70;99.90;;;;;;5013997;28;19910;-78
2024/03/14 11:04:42;;;;;;;3.88;0.60;;;15.70;99.90;;;;;;5012492;28;20025;-78
2024/03/14 11:07:08;;;;;;;2.25;0.40;;;15.90;99.90;;;;;;5012449;28;20022;-78
2024/03/14 11:09:53;;;;;;;2.20;0.50;;;16.00;99.90;;;;;;5014279;28;20025;-79
2024/03/14 11:12:23;;;;;;;2.97;0.68;;;16.20;99.90;;;;;;5012151;28;20095;-78
2024/03/14 11:14:59;;;;;;;0.73;0.32;;;16.30;99.90;;;;;;5012375;28;20034;-79
2024/03/14 11:17:26;;;;;;;1.23;0.25;;;16.40;99.90;;;;;;5012422;28;20026;-78
2024/03/14 11:19:54;;;;;;;1.58;0.35;;;16.40;99.90;;;;;;5015363;28;20025;-78
2024/03/14 11:22:21;;;;;;;2.80;0.40;;;16.30;99.90;;;;;;5016569;28;20026;-78
2024/03/14 11:24:51;;;;;;;2.22;0.30;;;16.40;99.90;;;;;;5017224;28;20367;-78
2024/03/14 11:27:20;;;;;;;4.05;0.15;;;16.40;99.90;;;;;;5016002;28;20022;-78
2024/03/14 11:29:47;;;;;;;1.67;0.40;;;16.60;99.90;;;;;;5015940;28;20037;-78
2024/03/14 11:32:18;;;;;;;0.77;0.20;;;16.60;99.90;;;;;;5017159;28;20044;-78
2024/03/14 11:34:46;;;;;;;1.02;0.20;;;16.70;99.90;;;;;;5016006;28;20489;-78
2024/03/14 11:37:14;;;;;;;1.08;0.32;;;16.70;99.90;;;;;;5015768;28;20121;-78
2024/03/14 11:39:46;;;;;;;0.90;0.30;;;16.80;99.90;;;;;;5015304;28;20037;-78
2024/03/14 11:42:13;;;;;;;0.75;0.22;;;16.80;99.90;;;;;;5015761;28;20083;-78
2024/03/14 11:44:46;;;;;;;1.83;0.20;;;17.00;99.90;;;;;;5016997;28;20022;-78
2024/03/14 11:47:19;;;;;;;0.77;0.25;;;17.20;99.90;;;;;;5017080;28;20112;-78
2024/03/14 11:49:46;;;;;;;1.20;0.32;;;17.30;99.90;;;;;;5015449;28;20033;-78
2024/03/14 11:52:15;;;;;;;0.65;0.10;;;17.50;99.90;;;;;;5015777;28;20493;-78
2024/03/14 11:54:41;;;;;;;2.70;0.38;;;17.60;99.90;;;;;;5017133;28;20105;-78
2024/03/14 11:57:08;;;;;;;1.38;0.38;;;17.50;99.90;;;;;;5017237;28;20453;-78
2024/03/14 11:59:39;;;;;;;1.00;0.40;;;17.50;99.90;;;;;;5016786;28;20026;-78
2024/03/14 12:02:04;;;;;;;2.40;0.20;;;17.60;99.90;;;;;;5015963;28;20030;-78
2024/03/14 12:04:31;;;;;;;0.70;0.13;;;17.80;99.90;;;;;;5015785;28;20022;-78
2024/03/14 12:06:59;;;;;;;0.47;0.10;;;17.80;99.90;;;;;;5020140;28;20026;-79
2024/03/14 12:09:30;;;;;;;2.33;0.40;;;18.20;99.90;;;;;;5022435;28;20022;-79
2024/03/14 12:11:56;;;;;;;1.08;0.13;;;18.20;99.90;;;;;;5021276;28;20030;-78
2024/03/14 12:14:22;;;;;;;0.85;0.00;;;18.30;99.90;;;;;;5022378;28;20095;-79
2024/03/14 12:16:49;;;;;;;0.30;0.00;;;18.30;99.90;;;;;;5021008;28;20030;-79
2024/03/14 12:19:16;;;;;;;1.52;0.35;;;18.60;99.90;;;;;;5021006;28;20022;-78
2024/03/14 12:21:58;;;;;;;1.50;0.50;;;18.70;99.90;;;;;;5020367;28;20040;-78
2024/03/14 12:24:23;;;;;;;0.82;0.10;;;18.70;99.90;;;;;;5019685;28;20025;-78
2024/03/14 12:26:52;;;;;;;0.52;0.10;;;18.80;99.90;;;;;;5019908;28;20112;-78
2024/03/14 12:29:19;;;;;;;0.57;0.08;;;19.00;99.90;;;;;;5021172;28;20056;-78
2024/03/14 12:31:49;;;;;;;0.25;0.10;;;18.90;99.90;;;;;;5019917;28;20048;-79
2024/03/14 12:34:16;;;;;;;1.33;0.20;;;19.20;99.90;;;;;;5021374;28;20048;-78
2024/03/14 12:36:44;;;;;;;0.20;0.00;;;19.40;99.90;;;;;;5021874;28;20026;-78
2024/03/14 12:39:11;;;;;;;1.52;0.10;;;19.80;99.90;;;;;;5019442;28;20026;-78
2024/03/14 12:41:38;;;;;;;2.40;0.00;;;;;;;;;;5020493;28;20030;-78
2024/03/14 12:44:07;;;;;;;0.17;0.00;;;19.80;99.90;;;;;;5020436;28;20029;-78
2024/03/14 12:46:35;;;;;;;0.80;0.10;;;19.80;99.90;;;;;;5020864;28;20025;-78
2024/03/14 12:49:03;;;;;;;2.45;0.10;;;19.80;99.90;;;;;;5021370;28;20454;-78
2024/03/14 12:51:29;;;;;;;1.67;0.30;;;19.80;99.90;;;;;;5021136;28;20022;-78
2024/03/14 12:54:03;;;;;;;0.15;0.00;;;19.70;99.90;;;;;;5019738;28;20025;-79
2024/03/14 12:56:30;;;;;;;0.20;0.10;;;19.50;99.90;;;;;;5020006;28;20121;-79
2024/03/14 12:58:57;;;;;;;0.63;0.10;;;19.30;99.90;;;;;;5021111;28;20049;-79